sensor_id;sensor_type;location;lat;lon;timestamp;P1;durP1;ratioP1;P2;durP2;ratioP2
45077;SDS011;60508;42.622;25.416;2024-03-23T00:54:33;4.45;;;3.92;;
45077;SDS011;60508;42.622;25.416;2024-03-23T00:57:19;9.27;;;4.10;;
45077;SDS011;60508;42.622;25.416;2024-03-23T00:59:46;5.15;;;4.00;;
45077;SDS011;60508;42.622;25.416;2024-03-23T01:02:32;5.82;;;4.22;;
45077;SDS011;60508;42.622;25.416;2024-03-23T01:05:03;5.15;;;4.13;;
45077;SDS011;60508;42.622;25.416;2024-03-23T01:07:30;6.93;;;3.95;;
45077;SDS011;60508;42.622;25.416;2024-03-23T01:10:16;4.63;;;3.97;;
45077;SDS011;60508;42.622;25.416;2024-03-23T01:12:43;3.67;;;3.38;;
45077;SDS011;60508;42.622;25.416;2024-03-23T01:15:09;5.38;;;4.53;;
45077;SDS011;60508;42.622;25.416;2024-03-23T01:17:35;5.78;;;3.47;;
45077;SDS011;60508;42.622;25.416;2024-03-23T01:20:22;3.60;;;3.15;;
45077;SDS011;60508;42.622;25.416;2024-03-23T01:22:48;6.55;;;3.90;;
45077;SDS011;60508;42.622;25.416;2024-03-23T01:25:15;5.38;;;3.67;;
45077;SDS011;60508;42.622;25.416;2024-03-23T01:27:41;4.82;;;3.60;;
45077;SDS011;60508;42.622;25.416;2024-03-23T01:30:07;5.13;;;3.60;;
45077;SDS011;60508;42.622;25.416;2024-03-23T01:32:54;5.75;;;3.90;;
45077;SDS011;60508;42.622;25.416;2024-03-23T01:35:20;7.32;;;3.53;;
45077;SDS011;60508;42.622;25.416;2024-03-23T01:37:47;6.88;;;3.55;;
45077;SDS011;60508;42.622;25.416;2024-03-23T01:40:33;5.57;;;3.88;;
45077;SDS011;60508;42.622;25.416;2024-03-23T01:43:03;5.25;;;3.60;;
45077;SDS011;60508;42.622;25.416;2024-03-23T01:45:51;5.22;;;3.67;;
45077;SDS011;60508;42.622;25.416;2024-03-23T01:48:19;7.05;;;4.20;;
45077;SDS011;60508;42.622;25.416;2024-03-23T01:50:46;5.50;;;4.00;;
45077;SDS011;60508;42.622;25.416;2024-03-23T01:53:14;6.22;;;4.68;;
45077;SDS011;60508;42.622;25.416;2024-03-23T01:55:43;7.10;;;3.83;;
45077;SDS011;60508;42.622;25.416;2024-03-23T01:58:10;8.95;;;3.70;;
45077;SDS011;60508;42.622;25.416;2024-03-23T02:00:36;5.32;;;3.80;;
45077;SDS011;60508;42.622;25.416;2024-03-23T02:03:03;6.30;;;3.97;;
45077;SDS011;60508;42.622;25.416;2024-03-23T02:05:48;4.65;;;3.65;;
45077;SDS011;60508;42.622;25.416;2024-03-23T02:08:34;5.03;;;3.63;;
45077;SDS011;60508;42.622;25.416;2024-03-23T02:11:01;6.15;;;3.85;;
45077;SDS011;60508;42.622;25.416;2024-03-23T02:13:27;6.35;;;4.03;;
45077;SDS011;60508;42.622;25.416;2024-03-23T02:16:13;6.07;;;4.13;;
45077;SDS011;60508;42.622;25.416;2024-03-23T02:18:40;7.45;;;4.68;;
45077;SDS011;60508;42.622;25.416;2024-03-23T02:21:06;6.40;;;4.35;;
45077;SDS011;60508;42.622;25.416;2024-03-23T02:23:33;12.07;;;6.00;;
45077;SDS011;60508;42.622;25.416;2024-03-23T02:26:19;7.80;;;5.38;;
45077;SDS011;60508;42.622;25.416;2024-03-23T02:28:45;21.67;;;6.85;;
45077;SDS011;60508;42.622;25.416;2024-03-23T02:31:12;9.82;;;5.88;;
45077;SDS011;60508;42.622;25.416;2024-03-23T02:33:39;10.15;;;4.93;;
45077;SDS011;60508;42.622;25.416;2024-03-23T02:36:25;7.18;;;4.65;;
45077;SDS011;60508;42.622;25.416;2024-03-23T02:38:52;8.18;;;5.72;;
45077;SDS011;60508;42.622;25.416;2024-03-23T02:41:19;8.02;;;5.45;;
45077;SDS011;60508;42.622;25.416;2024-03-23T02:43:49;9.05;;;5.93;;
45077;SDS011;60508;42.622;25.416;2024-03-23T02:46:16;7.40;;;5.57;;
45077;SDS011;60508;42.622;25.416;2024-03-23T02:49:02;11.65;;;5.90;;
45077;SDS011;60508;42.622;25.416;2024-03-23T02:51:29;9.65;;;6.28;;
45077;SDS011;60508;42.622;25.416;2024-03-23T02:53:56;12.43;;;7.55;;
45077;SDS011;60508;42.622;25.416;2024-03-23T02:56:42;9.88;;;5.78;;
45077;SDS011;60508;42.622;25.416;2024-03-23T02:59:09;11.20;;;6.93;;
45077;SDS011;60508;42.622;25.416;2024-03-23T03:01:36;12.57;;;7.97;;
45077;SDS011;60508;42.622;25.416;2024-03-23T03:04:02;11.20;;;5.80;;
45077;SDS011;60508;42.622;25.416;2024-03-23T03:06:49;11.25;;;7.72;;
45077;SDS011;60508;42.622;25.416;2024-03-23T03:09:15;10.43;;;5.75;;
45077;SDS011;60508;42.622;25.416;2024-03-23T03:11:42;11.70;;;5.55;;
45077;SDS011;60508;42.622;25.416;2024-03-23T03:14:08;11.07;;;4.53;;
45077;SDS011;60508;42.622;25.416;2024-03-23T03:16:54;5.85;;;4.45;;
45077;SDS011;60508;42.622;25.416;2024-03-23T03:19:21;8.02;;;4.13;;
45077;SDS011;60508;42.622;25.416;2024-03-23T03:21:47;9.15;;;6.07;;
45077;SDS011;60508;42.622;25.416;2024-03-23T03:24:14;8.27;;;5.57;;
45077;SDS011;60508;42.622;25.416;2024-03-23T03:26:40;9.80;;;5.25;;
45077;SDS011;60508;42.622;25.416;2024-03-23T03:29:07;10.32;;;6.20;;
45077;SDS011;60508;42.622;25.416;2024-03-23T03:31:33;9.27;;;5.68;;
45077;SDS011;60508;42.622;25.416;2024-03-23T03:34:19;10.80;;;6.28;;
45077;SDS011;60508;42.622;25.416;2024-03-23T03:36:46;14.02;;;7.28;;
45077;SDS011;60508;42.622;25.416;2024-03-23T03:39:12;10.43;;;6.70;;
45077;SDS011;60508;42.622;25.416;2024-03-23T03:41:39;8.55;;;5.22;;
45077;SDS011;60508;42.622;25.416;2024-03-23T03:44:25;10.48;;;6.32;;
45077;SDS011;60508;42.622;25.416;2024-03-23T03:46:52;10.25;;;6.20;;
45077;SDS011;60508;42.622;25.416;2024-03-23T03:49:18;6.55;;;5.20;;
45077;SDS011;60508;42.622;25.416;2024-03-23T03:52:04;10.32;;;6.20;;
45077;SDS011;60508;42.622;25.416;2024-03-23T03:54:31;7.45;;;5.00;;
45077;SDS011;60508;42.622;25.416;2024-03-23T03:56:57;6.03;;;4.47;;
45077;SDS011;60508;42.622;25.416;2024-03-23T03:59:24;6.72;;;5.57;;
45077;SDS011;60508;42.622;25.416;2024-03-23T04:01:50;8.60;;;5.20;;
45077;SDS011;60508;42.622;25.416;2024-03-23T04:04:37;6.63;;;4.75;;
45077;SDS011;60508;42.622;25.416;2024-03-23T04:07:03;7.50;;;4.88;;
45077;SDS011;60508;42.622;25.416;2024-03-23T04:09:51;8.60;;;4.78;;
45077;SDS011;60508;42.622;25.416;2024-03-23T04:12:17;7.85;;;4.70;;
45077;SDS011;60508;42.622;25.416;2024-03-23T04:14:43;8.02;;;4.85;;
45077;SDS011;60508;42.622;25.416;2024-03-23T04:17:10;6.13;;;4.45;;
45077;SDS011;60508;42.622;25.416;2024-03-23T04:19:56;6.38;;;4.22;;
45077;SDS011;60508;42.622;25.416;2024-03-23T04:22:23;6.47;;;4.07;;
45077;SDS011;60508;42.622;25.416;2024-03-23T04:24:55;6.87;;;3.90;;
45077;SDS011;60508;42.622;25.416;2024-03-23T04:27:23;4.63;;;4.15;;
45077;SDS011;60508;42.622;25.416;2024-03-23T04:29:52;6.32;;;3.95;;
45077;SDS011;60508;42.622;25.416;2024-03-23T04:32:19;4.28;;;3.88;;
45077;SDS011;60508;42.622;25.416;2024-03-23T04:34:45;5.13;;;3.70;;
45077;SDS011;60508;42.622;25.416;2024-03-23T04:37:11;4.70;;;3.60;;
45077;SDS011;60508;42.622;25.416;2024-03-23T04:39:39;5.47;;;3.90;;
45077;SDS011;60508;42.622;25.416;2024-03-23T04:42:25;5.50;;;4.13;;
45077;SDS011;60508;42.622;25.416;2024-03-23T04:44:54;9.32;;;4.18;;
45077;SDS011;60508;42.622;25.416;2024-03-23T04:47:21;6.97;;;4.07;;
45077;SDS011;60508;42.622;25.416;2024-03-23T04:49:47;6.97;;;4.20;;
45077;SDS011;60508;42.622;25.416;2024-03-23T04:52:35;8.98;;;4.97;;
45077;SDS011;60508;42.622;25.416;2024-03-23T04:55:02;5.95;;;4.13;;
45077;SDS011;60508;42.622;25.416;2024-03-23T04:57:30;7.10;;;5.03;;
45077;SDS011;60508;42.622;25.416;2024-03-23T04:59:56;6.82;;;4.18;;
45077;SDS011;60508;42.622;25.416;2024-03-23T05:02:22;6.60;;;4.07;;
45077;SDS011;60508;42.622;25.416;2024-03-23T05:05:10;6.40;;;4.07;;
45077;SDS011;60508;42.622;25.416;2024-03-23T05:07:38;5.32;;;3.70;;
45077;SDS011;60508;42.622;25.416;2024-03-23T05:10:05;4.30;;;3.38;;
45077;SDS011;60508;42.622;25.416;2024-03-23T05:12:31;5.72;;;3.70;;
45077;SDS011;60508;42.622;25.416;2024-03-23T05:14:58;6.50;;;4.20;;
45077;SDS011;60508;42.622;25.416;2024-03-23T05:17:44;7.78;;;3.33;;
45077;SDS011;60508;42.622;25.416;2024-03-23T05:20:11;3.28;;;2.67;;
45077;SDS011;60508;42.622;25.416;2024-03-23T05:22:39;5.22;;;3.97;;
45077;SDS011;60508;42.622;25.416;2024-03-23T05:25:14;4.32;;;2.90;;
45077;SDS011;60508;42.622;25.416;2024-03-23T05:28:02;4.07;;;3.08;;
45077;SDS011;60508;42.622;25.416;2024-03-23T05:30:28;4.43;;;3.10;;
45077;SDS011;60508;42.622;25.416;2024-03-23T05:32:54;5.88;;;3.13;;
45077;SDS011;60508;42.622;25.416;2024-03-23T05:35:41;3.08;;;2.78;;
45077;SDS011;60508;42.622;25.416;2024-03-23T05:38:07;3.72;;;2.80;;
45077;SDS011;60508;42.622;25.416;2024-03-23T05:40:33;6.85;;;2.90;;
45077;SDS011;60508;42.622;25.416;2024-03-23T05:45:29;6.15;;;3.70;;
45077;SDS011;60508;42.622;25.416;2024-03-23T05:47:56;6.03;;;3.85;;
45077;SDS011;60508;42.622;25.416;2024-03-23T05:50:25;4.85;;;3.75;;
45077;SDS011;60508;42.622;25.416;2024-03-23T05:52:52;6.72;;;4.00;;
45077;SDS011;60508;42.622;25.416;2024-03-23T05:55:18;3.28;;;2.80;;
45077;SDS011;60508;42.622;25.416;2024-03-23T05:57:44;5.32;;;3.65;;
45077;SDS011;60508;42.622;25.416;2024-03-23T06:00:11;4.25;;;3.38;;
45077;SDS011;60508;42.622;25.416;2024-03-23T06:02:44;6.38;;;4.60;;
45077;SDS011;60508;42.622;25.416;2024-03-23T06:05:11;6.75;;;5.03;;
45077;SDS011;60508;42.622;25.416;2024-03-23T06:07:38;7.45;;;4.88;;
45077;SDS011;60508;42.622;25.416;2024-03-23T06:10:05;8.13;;;5.40;;
45077;SDS011;60508;42.622;25.416;2024-03-23T06:12:32;12.20;;;6.45;;
45077;SDS011;60508;42.622;25.416;2024-03-23T06:15:18;11.18;;;6.45;;
45077;SDS011;60508;42.622;25.416;2024-03-23T06:17:45;6.72;;;4.90;;
45077;SDS011;60508;42.622;25.416;2024-03-23T06:20:12;8.93;;;5.93;;
45077;SDS011;60508;42.622;25.416;2024-03-23T06:22:39;9.20;;;6.80;;
45077;SDS011;60508;42.622;25.416;2024-03-23T06:25:05;10.70;;;6.50;;
45077;SDS011;60508;42.622;25.416;2024-03-23T06:27:33;10.25;;;6.63;;
45077;SDS011;60508;42.622;25.416;2024-03-23T06:30:00;10.20;;;6.57;;
45077;SDS011;60508;42.622;25.416;2024-03-23T06:32:46;8.27;;;6.40;;
45077;SDS011;60508;42.622;25.416;2024-03-23T06:35:13;8.93;;;6.20;;
45077;SDS011;60508;42.622;25.416;2024-03-23T06:37:40;10.13;;;7.50;;
45077;SDS011;60508;42.622;25.416;2024-03-23T06:40:27;9.75;;;6.47;;
45077;SDS011;60508;42.622;25.416;2024-03-23T06:42:57;12.63;;;7.80;;
45077;SDS011;60508;42.622;25.416;2024-03-23T06:45:23;11.38;;;7.57;;
45077;SDS011;60508;42.622;25.416;2024-03-23T06:47:50;10.75;;;6.82;;
45077;SDS011;60508;42.622;25.416;2024-03-23T06:50:37;8.20;;;5.47;;
45077;SDS011;60508;42.622;25.416;2024-03-23T06:53:03;7.97;;;5.50;;
45077;SDS011;60508;42.622;25.416;2024-03-23T06:55:31;10.50;;;5.35;;
45077;SDS011;60508;42.622;25.416;2024-03-23T06:58:21;7.82;;;5.80;;
45077;SDS011;60508;42.622;25.416;2024-03-23T07:00:48;6.53;;;5.30;;
45077;SDS011;60508;42.622;25.416;2024-03-23T07:03:15;6.93;;;5.03;;
45077;SDS011;60508;42.622;25.416;2024-03-23T07:05:42;5.47;;;4.57;;
45077;SDS011;60508;42.622;25.416;2024-03-23T07:08:28;19.80;;;6.45;;
45077;SDS011;60508;42.622;25.416;2024-03-23T07:10:55;10.75;;;4.57;;
45077;SDS011;60508;42.622;25.416;2024-03-23T07:13:21;4.75;;;3.47;;
45077;SDS011;60508;42.622;25.416;2024-03-23T07:15:53;7.50;;;4.97;;
45077;SDS011;60508;42.622;25.416;2024-03-23T07:18:21;5.30;;;4.25;;
45077;SDS011;60508;42.622;25.416;2024-03-23T07:20:57;4.97;;;3.88;;
45077;SDS011;60508;42.622;25.416;2024-03-23T07:23:44;5.53;;;4.47;;
45077;SDS011;60508;42.622;25.416;2024-03-23T07:26:11;7.80;;;5.03;;
45077;SDS011;60508;42.622;25.416;2024-03-23T07:28:37;5.78;;;4.10;;
45077;SDS011;60508;42.622;25.416;2024-03-23T07:31:12;7.40;;;5.03;;
45077;SDS011;60508;42.622;25.416;2024-03-23T07:33:45;6.88;;;3.67;;
45077;SDS011;60508;42.622;25.416;2024-03-23T07:36:33;10.10;;;3.80;;
45077;SDS011;60508;42.622;25.416;2024-03-23T07:38:59;5.57;;;4.13;;
45077;SDS011;60508;42.622;25.416;2024-03-23T07:41:25;5.22;;;3.72;;
45077;SDS011;60508;42.622;25.416;2024-03-23T07:43:53;11.95;;;3.85;;
45077;SDS011;60508;42.622;25.416;2024-03-23T07:46:20;6.75;;;4.50;;
45077;SDS011;60508;42.622;25.416;2024-03-23T07:48:46;6.28;;;4.68;;
45077;SDS011;60508;42.622;25.416;2024-03-23T07:51:16;12.15;;;4.30;;
45077;SDS011;60508;42.622;25.416;2024-03-23T07:54:07;8.90;;;4.22;;
45077;SDS011;60508;42.622;25.416;2024-03-23T07:56:33;7.13;;;3.45;;
45077;SDS011;60508;42.622;25.416;2024-03-23T07:58:59;6.78;;;3.65;;
45077;SDS011;60508;42.622;25.416;2024-03-23T08:01:46;4.22;;;3.28;;
45077;SDS011;60508;42.622;25.416;2024-03-23T08:04:12;6.97;;;3.50;;
45077;SDS011;60508;42.622;25.416;2024-03-23T08:06:39;3.70;;;2.78;;
45077;SDS011;60508;42.622;25.416;2024-03-23T08:09:25;3.35;;;3.05;;
45077;SDS011;60508;42.622;25.416;2024-03-23T08:11:51;3.17;;;2.40;;
45077;SDS011;60508;42.622;25.416;2024-03-23T08:14:38;3.25;;;2.63;;
45077;SDS011;60508;42.622;25.416;2024-03-23T08:17:04;4.38;;;2.97;;
45077;SDS011;60508;42.622;25.416;2024-03-23T08:19:30;6.65;;;3.97;;
45077;SDS011;60508;42.622;25.416;2024-03-23T08:21:57;7.30;;;3.53;;
45077;SDS011;60508;42.622;25.416;2024-03-23T08:24:43;7.15;;;2.85;;
45077;SDS011;60508;42.622;25.416;2024-03-23T08:27:09;3.35;;;2.42;;
45077;SDS011;60508;42.622;25.416;2024-03-23T08:29:36;2.45;;;2.25;;
45077;SDS011;60508;42.622;25.416;2024-03-23T08:32:02;2.47;;;2.28;;
45077;SDS011;60508;42.622;25.416;2024-03-23T08:34:29;8.13;;;2.58;;
45077;SDS011;60508;42.622;25.416;2024-03-23T08:36:55;4.38;;;2.42;;
45077;SDS011;60508;42.622;25.416;2024-03-23T08:39:22;11.00;;;2.30;;
45077;SDS011;60508;42.622;25.416;2024-03-23T08:42:08;2.95;;;2.55;;
45077;SDS011;60508;42.622;25.416;2024-03-23T08:44:35;7.30;;;2.85;;
45077;SDS011;60508;42.622;25.416;2024-03-23T08:47:21;2.40;;;1.80;;
45077;SDS011;60508;42.622;25.416;2024-03-23T08:49:48;3.30;;;2.05;;
45077;SDS011;60508;42.622;25.416;2024-03-23T08:52:14;3.72;;;2.08;;
45077;SDS011;60508;42.622;25.416;2024-03-23T08:55:00;4.53;;;2.08;;
45077;SDS011;60508;42.622;25.416;2024-03-23T08:57:27;2.90;;;2.33;;
45077;SDS011;60508;42.622;25.416;2024-03-23T08:59:53;4.50;;;2.30;;
45077;SDS011;60508;42.622;25.416;2024-03-23T09:02:20;3.65;;;2.58;;
45077;SDS011;60508;42.622;25.416;2024-03-23T09:05:06;3.67;;;2.38;;
45077;SDS011;60508;42.622;25.416;2024-03-23T09:07:33;3.08;;;2.10;;
45077;SDS011;60508;42.622;25.416;2024-03-23T09:09:59;5.88;;;3.15;;
45077;SDS011;60508;42.622;25.416;2024-03-23T09:12:26;5.53;;;3.55;;
45077;SDS011;60508;42.622;25.416;2024-03-23T09:14:52;2.78;;;2.15;;
45077;SDS011;60508;42.622;25.416;2024-03-23T09:17:19;1.92;;;1.70;;
45077;SDS011;60508;42.622;25.416;2024-03-23T09:19:45;3.40;;;2.20;;
45077;SDS011;60508;42.622;25.416;2024-03-23T09:22:12;5.10;;;1.80;;
45077;SDS011;60508;42.622;25.416;2024-03-23T09:24:38;2.72;;;1.63;;
45077;SDS011;60508;42.622;25.416;2024-03-23T09:27:25;2.92;;;1.75;;
45077;SDS011;60508;42.622;25.416;2024-03-23T09:29:51;3.45;;;1.52;;
45077;SDS011;60508;42.622;25.416;2024-03-23T09:32:38;1.45;;;1.35;;
45077;SDS011;60508;42.622;25.416;2024-03-23T09:35:04;4.00;;;1.55;;
45077;SDS011;60508;42.622;25.416;2024-03-23T09:37:31;1.65;;;1.10;;
45077;SDS011;60508;42.622;25.416;2024-03-23T09:40:17;3.20;;;1.27;;
45077;SDS011;60508;42.622;25.416;2024-03-23T09:42:49;4.93;;;4.53;;
45077;SDS011;60508;42.622;25.416;2024-03-23T09:45:38;1.20;;;1.00;;
45077;SDS011;60508;42.622;25.416;2024-03-23T09:48:09;1.92;;;0.80;;
45077;SDS011;60508;42.622;25.416;2024-03-23T09:50:56;1.23;;;0.90;;
45077;SDS011;60508;42.622;25.416;2024-03-23T09:53:22;0.82;;;0.80;;
45077;SDS011;60508;42.622;25.416;2024-03-23T09:55:49;1.00;;;0.93;;
45077;SDS011;60508;42.622;25.416;2024-03-23T09:58:16;1.38;;;1.02;;
45077;SDS011;60508;42.622;25.416;2024-03-23T10:00:43;1.38;;;1.23;;
45077;SDS011;60508;42.622;25.416;2024-03-23T10:03:10;1.40;;;1.30;;
45077;SDS011;60508;42.622;25.416;2024-03-23T10:05:37;2.80;;;1.20;;
45077;SDS011;60508;42.622;25.416;2024-03-23T10:08:17;1.25;;;1.00;;
45077;SDS011;60508;42.622;25.416;2024-03-23T10:11:14;2.13;;;0.80;;
45077;SDS011;60508;42.622;25.416;2024-03-23T10:13:42;1.15;;;0.98;;
45077;SDS011;60508;42.622;25.416;2024-03-23T10:16:10;1.17;;;1.08;;
45077;SDS011;60508;42.622;25.416;2024-03-23T10:18:37;1.45;;;0.90;;
45077;SDS011;60508;42.622;25.416;2024-03-23T10:21:10;0.80;;;0.80;;
45077;SDS011;60508;42.622;25.416;2024-03-23T10:24:00;2.78;;;0.70;;
45077;SDS011;60508;42.622;25.416;2024-03-23T10:26:34;1.08;;;0.95;;
45077;SDS011;60508;42.622;25.416;2024-03-23T10:29:02;1.85;;;0.85;;
45077;SDS011;60508;42.622;25.416;2024-03-23T10:31:37;0.75;;;0.75;;
45077;SDS011;60508;42.622;25.416;2024-03-23T10:34:27;1.73;;;1.00;;
45077;SDS011;60508;42.622;25.416;2024-03-23T10:36:54;0.90;;;0.80;;
45077;SDS011;60508;42.622;25.416;2024-03-23T10:39:43;0.90;;;0.90;;
45077;SDS011;60508;42.622;25.416;2024-03-23T10:42:09;3.28;;;1.05;;
45077;SDS011;60508;42.622;25.416;2024-03-23T10:44:59;1.25;;;0.80;;
45077;SDS011;60508;42.622;25.416;2024-03-23T10:47:26;1.88;;;1.23;;
45077;SDS011;60508;42.622;25.416;2024-03-23T10:49:52;0.70;;;0.60;;
45077;SDS011;60508;42.622;25.416;2024-03-23T10:52:19;7.22;;;1.10;;
45077;SDS011;60508;42.622;25.416;2024-03-23T10:55:06;1.70;;;1.20;;
45077;SDS011;60508;42.622;25.416;2024-03-23T10:57:45;2.38;;;0.90;;
45077;SDS011;60508;42.622;25.416;2024-03-23T11:00:37;1.58;;;1.45;;
45077;SDS011;60508;42.622;25.416;2024-03-23T11:06:03;0.93;;;0.80;;
45077;SDS011;60508;42.622;25.416;2024-03-23T11:11:21;3.65;;;0.77;;
45077;SDS011;60508;42.622;25.416;2024-03-23T11:13:49;2.35;;;1.10;;
45077;SDS011;60508;42.622;25.416;2024-03-23T11:16:23;0.87;;;0.70;;
45077;SDS011;60508;42.622;25.416;2024-03-23T11:18:51;3.47;;;1.00;;
45077;SDS011;60508;42.622;25.416;2024-03-23T11:21:53;2.10;;;0.90;;
45077;SDS011;60508;42.622;25.416;2024-03-23T11:24:21;0.98;;;0.93;;
45077;SDS011;60508;42.622;25.416;2024-03-23T11:27:17;0.75;;;0.73;;
45077;SDS011;60508;42.622;25.416;2024-03-23T11:29:44;0.73;;;0.73;;
45077;SDS011;60508;42.622;25.416;2024-03-23T11:32:10;1.58;;;1.00;;
45077;SDS011;60508;42.622;25.416;2024-03-23T11:34:39;1.35;;;0.98;;
45077;SDS011;60508;42.622;25.416;2024-03-23T11:37:05;1.63;;;0.70;;
45077;SDS011;60508;42.622;25.416;2024-03-23T11:39:32;2.88;;;1.50;;
45077;SDS011;60508;42.622;25.416;2024-03-23T11:42:18;0.93;;;0.88;;
45077;SDS011;60508;42.622;25.416;2024-03-23T11:44:47;1.00;;;0.77;;
45077;SDS011;60508;42.622;25.416;2024-03-23T11:47:33;1.75;;;1.10;;
45077;SDS011;60508;42.622;25.416;2024-03-23T11:50:00;0.77;;;0.68;;
45077;SDS011;60508;42.622;25.416;2024-03-23T11:52:26;1.10;;;1.00;;
45077;SDS011;60508;42.622;25.416;2024-03-23T11:55:02;1.38;;;1.23;;
45077;SDS011;60508;42.622;25.416;2024-03-23T11:57:29;3.38;;;1.23;;
45077;SDS011;60508;42.622;25.416;2024-03-23T11:59:56;1.80;;;1.25;;
45077;SDS011;60508;42.622;25.416;2024-03-23T12:02:22;1.85;;;1.38;;
45077;SDS011;60508;42.622;25.416;2024-03-23T12:04:48;2.13;;;1.15;;
45077;SDS011;60508;42.622;25.416;2024-03-23T12:07:18;1.20;;;0.95;;
45077;SDS011;60508;42.622;25.416;2024-03-23T12:10:04;0.90;;;0.90;;
45077;SDS011;60508;42.622;25.416;2024-03-23T12:13:01;1.23;;;1.13;;
45077;SDS011;60508;42.622;25.416;2024-03-23T12:15:27;2.22;;;0.85;;
45077;SDS011;60508;42.622;25.416;2024-03-23T12:18:10;4.60;;;1.20;;
45077;SDS011;60508;42.622;25.416;2024-03-23T12:20:37;4.00;;;1.50;;
45077;SDS011;60508;42.622;25.416;2024-03-23T12:23:05;1.33;;;1.15;;
45077;SDS011;60508;42.622;25.416;2024-03-23T12:25:38;1.45;;;1.25;;
45077;SDS011;60508;42.622;25.416;2024-03-23T12:28:25;0.90;;;0.90;;
45077;SDS011;60508;42.622;25.416;2024-03-23T12:30:56;3.70;;;1.33;;
45077;SDS011;60508;42.622;25.416;2024-03-23T12:33:22;2.05;;;0.98;;
45077;SDS011;60508;42.622;25.416;2024-03-23T12:35:52;2.97;;;0.73;;
45077;SDS011;60508;42.622;25.416;2024-03-23T12:38:19;1.23;;;0.82;;
45077;SDS011;60508;42.622;25.416;2024-03-23T12:41:06;1.40;;;0.93;;
45077;SDS011;60508;42.622;25.416;2024-03-23T12:43:32;1.65;;;0.90;;
45077;SDS011;60508;42.622;25.416;2024-03-23T12:45:59;1.13;;;0.93;;
45077;SDS011;60508;42.622;25.416;2024-03-23T12:48:45;1.98;;;0.73;;
45077;SDS011;60508;42.622;25.416;2024-03-23T12:51:12;0.82;;;0.70;;
45077;SDS011;60508;42.622;25.416;2024-03-23T12:53:58;1.08;;;0.90;;
45077;SDS011;60508;42.622;25.416;2024-03-23T12:56:25;3.25;;;1.25;;
45077;SDS011;60508;42.622;25.416;2024-03-23T12:59:12;2.78;;;0.88;;
45077;SDS011;60508;42.622;25.416;2024-03-23T13:01:39;1.30;;;1.20;;
45077;SDS011;60508;42.622;25.416;2024-03-23T13:04:05;4.18;;;1.40;;
45077;SDS011;60508;42.622;25.416;2024-03-23T13:06:52;2.13;;;1.40;;
45077;SDS011;60508;42.622;25.416;2024-03-23T13:09:18;1.30;;;1.20;;
45077;SDS011;60508;42.622;25.416;2024-03-23T13:12:05;2.45;;;1.15;;
45077;SDS011;60508;42.622;25.416;2024-03-23T13:14:32;1.40;;;1.30;;
45077;SDS011;60508;42.622;25.416;2024-03-23T13:16:58;1.40;;;1.30;;
45077;SDS011;60508;42.622;25.416;2024-03-23T13:19:25;2.60;;;0.75;;
45077;SDS011;60508;42.622;25.416;2024-03-23T13:22:13;2.05;;;1.00;;
45077;SDS011;60508;42.622;25.416;2024-03-23T13:24:39;1.17;;;1.00;;
45077;SDS011;60508;42.622;25.416;2024-03-23T13:27:25;5.90;;;1.20;;
45077;SDS011;60508;42.622;25.416;2024-03-23T13:29:52;3.00;;;1.67;;
45077;SDS011;60508;42.622;25.416;2024-03-23T13:32:18;0.90;;;0.82;;
45077;SDS011;60508;42.622;25.416;2024-03-23T13:35:04;3.67;;;1.27;;
45077;SDS011;60508;42.622;25.416;2024-03-23T13:37:32;1.80;;;1.27;;
45077;SDS011;60508;42.622;25.416;2024-03-23T13:40:19;2.10;;;1.67;;
45077;SDS011;60508;42.622;25.416;2024-03-23T13:42:46;1.75;;;1.65;;
45077;SDS011;60508;42.622;25.416;2024-03-23T13:45:32;2.22;;;1.70;;
45077;SDS011;60508;42.622;25.416;2024-03-23T13:47:59;1.63;;;1.48;;
45077;SDS011;60508;42.622;25.416;2024-03-23T13:50:45;1.73;;;1.30;;
45077;SDS011;60508;42.622;25.416;2024-03-23T13:55:46;4.07;;;1.50;;
45077;SDS011;60508;42.622;25.416;2024-03-23T13:58:36;2.03;;;1.83;;
45077;SDS011;60508;42.622;25.416;2024-03-23T14:01:02;1.95;;;1.23;;
45077;SDS011;60508;42.622;25.416;2024-03-23T14:03:29;2.22;;;1.35;;
45077;SDS011;60508;42.622;25.416;2024-03-23T14:05:58;2.20;;;1.60;;
45077;SDS011;60508;42.622;25.416;2024-03-23T14:08:24;1.38;;;1.27;;
45077;SDS011;60508;42.622;25.416;2024-03-23T14:10:50;4.35;;;2.25;;
45077;SDS011;60508;42.622;25.416;2024-03-23T14:13:17;5.13;;;2.38;;
45077;SDS011;60508;42.622;25.416;2024-03-23T14:15:44;2.40;;;2.20;;
45077;SDS011;60508;42.622;25.416;2024-03-23T14:18:10;3.47;;;1.95;;
45077;SDS011;60508;42.622;25.416;2024-03-23T14:20:37;4.90;;;2.00;;
45077;SDS011;60508;42.622;25.416;2024-03-23T14:23:24;3.28;;;1.80;;
45077;SDS011;60508;42.622;25.416;2024-03-23T14:26:00;6.35;;;1.98;;
45077;SDS011;60508;42.622;25.416;2024-03-23T14:28:46;1.67;;;1.55;;
45077;SDS011;60508;42.622;25.416;2024-03-23T14:31:13;4.45;;;1.52;;
45077;SDS011;60508;42.622;25.416;2024-03-23T14:33:39;3.25;;;1.70;;
45077;SDS011;60508;42.622;25.416;2024-03-23T14:36:16;2.33;;;2.05;;
45077;SDS011;60508;42.622;25.416;2024-03-23T14:38:49;3.75;;;1.55;;
45077;SDS011;60508;42.622;25.416;2024-03-23T14:41:15;3.45;;;1.20;;
45077;SDS011;60508;42.622;25.416;2024-03-23T14:43:42;4.30;;;2.25;;
45077;SDS011;60508;42.622;25.416;2024-03-23T14:46:14;1.73;;;1.25;;
45077;SDS011;60508;42.622;25.416;2024-03-23T14:49:02;4.70;;;1.55;;
45077;SDS011;60508;42.622;25.416;2024-03-23T14:51:28;2.38;;;1.98;;
45077;SDS011;60508;42.622;25.416;2024-03-23T14:54:15;2.80;;;1.92;;
45077;SDS011;60508;42.622;25.416;2024-03-23T14:56:41;3.65;;;1.50;;
45077;SDS011;60508;42.622;25.416;2024-03-23T14:59:08;3.58;;;1.48;;
45077;SDS011;60508;42.622;25.416;2024-03-23T15:01:54;1.70;;;1.52;;
45077;SDS011;60508;42.622;25.416;2024-03-23T15:04:21;1.80;;;1.67;;
45077;SDS011;60508;42.622;25.416;2024-03-23T15:07:07;1.70;;;1.60;;
45077;SDS011;60508;42.622;25.416;2024-03-23T15:09:34;1.70;;;1.50;;
45077;SDS011;60508;42.622;25.416;2024-03-23T15:12:00;1.83;;;1.30;;
45077;SDS011;60508;42.622;25.416;2024-03-23T15:14:27;2.05;;;1.65;;
45077;SDS011;60508;42.622;25.416;2024-03-23T15:16:53;2.22;;;1.83;;
45077;SDS011;60508;42.622;25.416;2024-03-23T15:19:40;4.22;;;1.65;;
45077;SDS011;60508;42.622;25.416;2024-03-23T15:22:08;3.75;;;2.13;;
45077;SDS011;60508;42.622;25.416;2024-03-23T15:24:35;4.10;;;2.47;;
45077;SDS011;60508;42.622;25.416;2024-03-23T15:27:02;4.45;;;1.77;;
45077;SDS011;60508;42.622;25.416;2024-03-23T15:29:29;1.58;;;1.48;;
45077;SDS011;60508;42.622;25.416;2024-03-23T15:31:56;1.70;;;1.60;;
45077;SDS011;60508;42.622;25.416;2024-03-23T15:34:43;2.40;;;1.40;;
45077;SDS011;60508;42.622;25.416;2024-03-23T15:37:10;1.90;;;1.50;;
45077;SDS011;60508;42.622;25.416;2024-03-23T15:39:57;2.25;;;1.80;;
45077;SDS011;60508;42.622;25.416;2024-03-23T15:42:24;2.03;;;1.85;;
45077;SDS011;60508;42.622;25.416;2024-03-23T15:45:10;3.03;;;2.83;;
45077;SDS011;60508;42.622;25.416;2024-03-23T15:47:37;3.42;;;1.80;;
45077;SDS011;60508;42.622;25.416;2024-03-23T15:50:04;1.77;;;1.50;;
45077;SDS011;60508;42.622;25.416;2024-03-23T15:52:35;2.78;;;2.00;;
45077;SDS011;60508;42.622;25.416;2024-03-23T15:55:05;5.03;;;1.70;;
45077;SDS011;60508;42.622;25.416;2024-03-23T15:57:52;4.53;;;1.48;;
45077;SDS011;60508;42.622;25.416;2024-03-23T16:00:18;2.53;;;2.03;;
45077;SDS011;60508;42.622;25.416;2024-03-23T16:02:45;3.30;;;2.47;;
45077;SDS011;60508;42.622;25.416;2024-03-23T16:05:12;4.13;;;1.55;;
45077;SDS011;60508;42.622;25.416;2024-03-23T16:07:39;1.60;;;1.50;;